Time;durP1;ratioP1;P1;durP2;ratioP2;P2;SDS_P1;SDS_P2;PMS_P1;PMS_P2;Temp;Humidity;BMP_temperature;BMP_pressure;BME280_temperature;BME280_humidity;BME280_pressure;Samples;Min_cycle;Max_cycle;Signal;HPM_P1;HPM_P2
2023/08/05 00:00:12;;;;;;;80.88;76.78;;;;;;;21.26;53.27;101595.69;4990619;28;20448;-74
2023/08/05 00:02:38;;;;;;;82.18;78.32;;;;;;;21.25;53.35;101596.81;4978319;28;20030;-72
2023/08/05 00:05:04;;;;;;;80.15;76.35;;;;;;;21.23;52.84;101594.34;4989557;28;20034;-72
2023/08/05 00:07:30;;;;;;;79.10;75.18;;;;;;;21.23;52.94;101593.53;4989384;28;20117;-72
2023/08/05 00:09:55;;;;;;;78.13;74.38;;;;;;;21.22;52.92;101591.88;5002062;28;20042;-72
2023/08/05 00:12:21;;;;;;;77.63;73.95;;;;;;;21.20;53.24;101596.88;4992112;28;20034;-72
2023/08/05 00:14:47;;;;;;;80.45;76.28;;;;;;;21.17;52.95;101588.09;4989837;28;20035;-72
2023/08/05 00:17:12;;;;;;;81.25;76.68;;;;;;;21.16;53.09;101589.19;4986941;28;20053;-72
2023/08/05 00:19:37;;;;;;;78.18;74.47;;;;;;;21.16;53.03;101591.13;4988120;28;20035;-72
2023/08/05 00:22:03;;;;;;;81.60;77.78;;;;;;;21.14;53.21;101587.84;5000344;28;20034;-72
2023/08/05 00:24:28;;;;;;;81.32;77.53;;;;;;;21.13;53.45;101592.53;4970067;28;20472;-72
2023/08/05 00:26:54;;;;;;;78.22;74.53;;;;;;;21.13;52.92;101597.22;4987397;28;20046;-72
2023/08/05 00:29:19;;;;;;;78.30;74.70;;;;;;;21.10;53.32;101593.13;4988416;28;20053;-72
2023/08/05 00:31:45;;;;;;;84.75;80.85;;;;;;;21.09;53.13;101594.25;5004600;28;20046;-73
2023/08/05 00:34:10;;;;;;;83.20;78.68;;;;;;;21.09;53.34;101587.91;4988215;28;20040;-72
2023/08/05 00:36:36;;;;;;;79.93;76.13;;;;;;;21.07;53.02;101581.91;4975864;28;20050;-71
2023/08/05 00:39:01;;;;;;;77.20;73.30;;;;;;;21.06;53.08;101578.31;4982058;28;20046;-72
2023/08/05 00:41:26;;;;;;;77.88;73.97;;;;;;;21.04;53.01;101572.34;5006977;28;20041;-72
2023/08/05 00:43:52;;;;;;;79.25;75.45;;;;;;;21.03;53.12;101565.19;4983161;28;20039;-72
2023/08/05 00:46:22;;;;;;;74.53;70.88;;;;;;;21.02;53.59;101563.56;4976323;28;20034;-72
2023/08/05 00:48:49;;;;;;;77.32;73.72;;;;;;;21.02;53.39;101560.00;4981663;28;20136;-72
2023/08/05 00:51:14;;;;;;;79.15;75.13;;;;;;;20.99;53.64;101555.91;4995066;28;20034;-72
2023/08/05 00:53:40;;;;;;;77.38;73.80;;;;;;;20.99;53.08;101555.06;4991502;28;20455;-72
2023/08/05 00:56:05;;;;;;;77.80;73.90;;;;;;;20.98;53.54;101554.25;4993956;28;20641;-72
2023/08/05 00:58:32;;;;;;;78.57;74.28;;;;;;;20.96;53.14;101557.31;4992246;28;20045;-72
2023/08/05 01:00:58;;;;;;;79.43;75.55;;;;;;;20.95;53.16;101563.09;4992657;28;20022;-72
2023/08/05 01:03:24;;;;;;;78.00;74.30;;;;;;;20.94;53.15;101548.53;4990940;28;20034;-72
2023/08/05 01:05:52;;;;;;;77.88;73.97;;;;;;;20.93;53.76;101551.56;5004541;28;20061;-72
2023/08/05 01:08:20;;;;;;;76.53;72.90;;;;;;;20.91;53.59;101548.28;4994005;28;20034;-72
2023/08/05 01:10:46;;;;;;;78.60;74.90;;;;;;;20.90;53.08;101544.75;4992033;28;20045;-72
2023/08/05 01:13:11;;;;;;;77.57;73.78;;;;;;;20.89;53.72;101547.75;4993929;28;20038;-72
2023/08/05 01:15:37;;;;;;;77.30;73.60;;;;;;;20.88;53.06;101548.88;4993251;28;20049;-72
2023/08/05 01:18:04;;;;;;;76.63;72.63;;;;;;;20.87;53.72;101545.34;4991775;28;20073;-72
2023/08/05 01:20:52;;;;;;;77.60;73.65;;;;;;;20.85;53.64;101544.81;4991939;28;20038;-72
2023/08/05 01:23:26;;;;;;;72.65;69.05;;;;;;;20.85;53.11;101552.22;4975527;28;20031;-72
2023/08/05 01:25:52;;;;;;;73.38;69.78;;;;;;;20.83;53.33;101555.25;4983809;28;20176;-73
2023/08/05 01:28:18;;;;;;;76.22;72.57;;;;;;;20.81;53.19;101545.66;4992841;28;20518;-72
2023/08/05 01:30:45;;;;;;;74.32;70.68;;;;;;;20.80;53.68;101546.78;4986179;28;20035;-72
2023/08/05 01:33:12;;;;;;;76.97;73.18;;;;;;;20.80;53.88;101544.03;4992378;28;20034;-72
2023/08/05 01:35:38;;;;;;;76.22;72.57;;;;;;;20.78;53.68;101552.56;4992320;28;20431;-72
2023/08/05 01:38:03;;;;;;;81.55;77.60;;;;;;;20.77;53.54;101552.88;4991066;28;20117;-72
2023/08/05 01:40:29;;;;;;;77.47;73.50;;;;;;;20.75;53.71;101545.72;4980352;28;20065;-72
2023/08/05 01:42:58;;;;;;;76.55;72.22;;;;;;;20.75;53.60;101550.41;4979032;28;20074;-73
2023/08/05 01:45:24;;;;;;;76.03;72.32;;;;;;;20.73;53.64;101547.94;4981802;28;20172;-72
2023/08/05 01:47:49;;;;;;;72.93;69.43;;;;;;;20.72;53.58;101542.75;4990953;28;20030;-72
2023/08/05 01:50:15;;;;;;;76.32;72.53;;;;;;;20.71;53.38;101541.09;4975579;28;20491;-72
2023/08/05 01:52:40;;;;;;;76.93;73.22;;;;;;;20.70;53.63;101543.03;4979513;28;20038;-72
2023/08/05 01:55:06;;;;;;;75.10;71.40;;;;;;;20.67;53.63;101540.88;4980215;28;20491;-72
2023/08/05 01:57:31;;;;;;;75.05;71.32;;;;;;;20.67;53.28;101540.88;4988220;28;20038;-72
2023/08/05 01:59:57;;;;;;;77.00;73.07;;;;;;;20.66;53.81;101546.66;4992231;28;20042;-72
2023/08/05 02:02:22;;;;;;;73.75;70.20;;;;;;;20.65;53.70;101542.28;4991307;28;20138;-71
2023/08/05 02:04:47;;;;;;;75.18;71.57;;;;;;;20.63;53.32;101542.56;4988020;28;20039;-71
2023/08/05 02:07:13;;;;;;;75.25;71.45;;;;;;;20.62;54.04;101529.97;4981419;28;20182;-71
2023/08/05 02:09:38;;;;;;;76.63;72.88;;;;;;;20.62;53.47;101542.88;4994109;28;20034;-71
2023/08/05 02:12:04;;;;;;;74.53;70.80;;;;;;;20.59;53.93;101536.03;4991723;28;20038;-71
2023/08/05 02:14:29;;;;;;;75.28;71.65;;;;;;;20.59;53.68;101537.94;4977432;28;20089;-71
2023/08/05 02:16:56;;;;;;;76.00;71.80;;;;;;;20.59;53.75;101532.44;4974362;28;20113;-72
2023/08/05 02:19:21;;;;;;;73.13;69.63;;;;;;;20.56;53.47;101530.31;4985062;28;20074;-71
2023/08/05 02:21:46;;;;;;;74.07;70.57;;;;;;;20.56;53.80;101539.34;4993150;28;20372;-71
2023/08/05 02:24:12;;;;;;;73.63;69.97;;;;;;;20.54;53.33;101527.84;4983508;28;20070;-71
2023/08/05 02:26:38;;;;;;;75.47;71.63;;;;;;;20.53;53.80;101523.44;4974869;28;20042;-71
2023/08/05 02:29:03;;;;;;;76.03;72.20;;;;;;;20.51;53.79;101515.50;4987438;28;20034;-72
2023/08/05 02:31:29;;;;;;;75.38;71.70;;;;;;;20.50;53.58;101507.56;4981707;28;20034;-71
2023/08/05 02:33:54;;;;;;;75.07;71.32;;;;;;;20.49;53.36;101503.19;4977482;28;20110;-71
2023/08/05 02:36:19;;;;;;;76.57;72.88;;;;;;;20.48;53.33;101507.03;4974198;28;20042;-71
2023/08/05 02:38:45;;;;;;;75.95;72.07;;;;;;;20.46;53.45;101506.50;4983613;28;20088;-71
2023/08/05 02:41:10;;;;;;;75.88;71.82;;;;;;;20.45;53.43;101505.69;4980306;28;20062;-71
2023/08/05 02:43:35;;;;;;;77.05;73.40;;;;;;;20.45;53.61;101507.59;4975710;28;20041;-72
2023/08/05 02:46:01;;;;;;;76.53;72.57;;;;;;;20.43;53.89;101504.34;4975288;28;20446;-72
2023/08/05 02:48:26;;;;;;;75.15;71.35;;;;;;;20.43;53.53;101509.81;4989523;28;20121;-72
2023/08/05 02:50:53;;;;;;;74.35;70.60;;;;;;;20.41;53.62;101509.28;4993479;28;20054;-72
2023/08/05 02:53:19;;;;;;;75.57;71.85;;;;;;;20.41;53.49;101509.28;4989333;28;20033;-71
2023/08/05 02:55:45;;;;;;;74.75;70.53;;;;;;;20.39;53.86;101497.81;4982311;28;20030;-72
2023/08/05 02:58:10;;;;;;;75.90;72.10;;;;;;;20.39;53.54;101486.84;4980980;28;20033;-72
2023/08/05 03:00:36;;;;;;;74.00;69.28;;;;;;;20.37;53.83;101484.38;4990925;28;20038;-72
2023/08/05 03:03:02;;;;;;;71.50;67.85;;;;;;;20.36;54.03;101476.41;4978854;28;20031;-72
2023/08/05 03:05:28;;;;;;;71.80;68.25;;;;;;;20.35;53.79;101480.28;4990450;28;20041;-72
2023/08/05 03:07:53;;;;;;;75.07;70.43;;;;;;;20.32;53.79;101470.69;4978556;28;20030;-71
2023/08/05 03:10:19;;;;;;;72.70;69.10;;;;;;;20.32;53.98;101474.25;4983576;28;20112;-71
2023/08/05 03:12:44;;;;;;;71.90;68.32;;;;;;;20.30;53.99;101467.44;4992179;28;20121;-71
2023/08/05 03:15:10;;;;;;;72.00;68.28;;;;;;;20.29;53.93;101466.63;4978532;28;20045;-72
2023/08/05 03:17:35;;;;;;;72.68;69.05;;;;;;;20.29;54.02;101466.63;4979221;28;20074;-71
2023/08/05 03:20:05;;;;;;;72.43;68.93;;;;;;;20.28;53.93;101455.91;4987541;28;20062;-73
2023/08/05 03:22:31;;;;;;;71.07;67.38;;;;;;;20.27;53.71;101454.28;4990272;28;20027;-71
2023/08/05 03:24:56;;;;;;;74.10;70.53;;;;;;;20.25;53.69;101453.75;4991143;28;20121;-71
2023/08/05 03:27:22;;;;;;;75.95;72.25;;;;;;;20.24;53.99;101449.41;4991359;28;20121;-72
2023/08/05 03:29:47;;;;;;;72.82;69.32;;;;;;;20.22;53.74;101452.41;4974001;28;20035;-72
2023/08/05 03:32:13;;;;;;;74.53;70.93;;;;;;;20.21;53.65;101438.97;4989071;28;20118;-71
2023/08/05 03:34:38;;;;;;;70.30;66.85;;;;;;;20.20;53.74;101435.44;4979443;28;20109;-71
2023/08/05 03:37:04;;;;;;;72.53;68.47;;;;;;;20.17;54.09;101436.00;4972900;28;20027;-73
2023/08/05 03:39:29;;;;;;;71.00;67.35;;;;;;;20.17;53.63;101444.25;4989780;28;20093;-72
2023/08/05 03:41:55;;;;;;;71.50;67.78;;;;;;;20.15;53.96;101437.41;4984845;28;20105;-72
2023/08/05 03:44:20;;;;;;;71.65;68.00;;;;;;;20.13;53.58;101443.19;4988438;28;20053;-72
2023/08/05 03:46:46;;;;;;;73.13;69.32;;;;;;;20.13;53.93;101440.44;4973338;28;20101;-72
2023/08/05 03:49:11;;;;;;;74.25;68.55;;;;;;;20.12;53.90;101438.00;4986115;28;20040;-72
2023/08/05 03:51:37;;;;;;;72.55;69.00;;;;;;;20.11;53.61;101442.69;4991210;28;20050;-71
2023/08/05 03:54:02;;;;;;;71.72;68.28;;;;;;;20.09;54.10;101439.41;4997920;28;20126;-71
2023/08/05 03:56:28;;;;;;;72.30;68.80;;;;;;;20.09;54.07;101428.44;4972380;28;20494;-72
2023/08/05 03:58:54;;;;;;;69.93;66.45;;;;;;;20.07;54.04;101419.66;4981175;28;20459;-71
2023/08/05 04:01:22;;;;;;;69.97;66.25;;;;;;;20.05;54.14;101417.19;4980410;28;20039;-72
2023/08/05 04:03:49;;;;;;;69.22;65.47;;;;;;;20.04;53.76;101414.78;4987479;28;20044;-71
2023/08/05 04:06:15;;;;;;;70.97;67.38;;;;;;;20.03;53.60;101433.16;4988186;28;20034;-72
2023/08/05 04:08:41;;;;;;;69.38;65.78;;;;;;;20.02;54.05;101436.97;4990263;28;20184;-71
2023/08/05 04:11:07;;;;;;;70.88;67.28;;;;;;;20.02;53.66;101422.47;4975599;28;20437;-72
2023/08/05 04:13:34;;;;;;;69.15;65.57;;;;;;;20.00;53.65;101411.78;4980079;28;20503;-71
2023/08/05 04:16:03;;;;;;;75.68;71.88;;;;;;;20.00;53.63;101405.47;4989574;28;20483;-71
2023/08/05 04:18:36;;;;;;;70.80;67.20;;;;;;;19.97;53.65;101397.84;4990579;28;20041;-72
2023/08/05 04:21:03;;;;;;;69.18;65.75;;;;;;;19.96;54.11;101407.16;4974391;28;20066;-72
2023/08/05 04:23:31;;;;;;;68.72;65.20;;;;;;;19.95;53.82;101414.56;4978022;28;20034;-72
2023/08/05 04:25:57;;;;;;;69.13;65.72;;;;;;;19.93;53.99;101411.28;4984924;28;20093;-71
2023/08/05 04:28:23;;;;;;;73.25;69.47;;;;;;;19.92;53.72;101401.44;4979520;28;20043;-72
2023/08/05 04:30:48;;;;;;;71.82;68.22;;;;;;;19.91;53.73;101398.97;4992906;28;20037;-73
2023/08/05 04:33:14;;;;;;;69.57;65.97;;;;;;;19.88;53.64;101390.25;4974579;28;20039;-71
2023/08/05 04:35:47;;;;;;;70.30;66.60;;;;;;;19.89;53.69;101385.56;4986954;28;20449;-72
2023/08/05 04:38:13;;;;;;;74.60;70.18;;;;;;;19.87;53.69;101376.81;4992421;28;20026;-72
2023/08/05 04:40:38;;;;;;;69.88;66.40;;;;;;;19.86;53.73;101375.19;4971556;28;21365;-72
2023/08/05 04:43:03;;;;;;;69.35;65.65;;;;;;;19.84;53.67;101377.41;4972692;28;20027;-72
2023/08/05 04:45:29;;;;;;;72.50;68.90;;;;;;;19.82;53.77;101380.44;4986694;28;20578;-72
2023/08/05 04:47:54;;;;;;;69.03;65.22;;;;;;;19.81;53.71;101378.81;4984090;28;20056;-72
2023/08/05 04:50:20;;;;;;;70.65;66.75;;;;;;;19.80;54.10;101371.66;4973764;28;20034;-72
2023/08/05 04:52:46;;;;;;;69.63;66.28;;;;;;;19.79;53.68;101367.31;4972414;28;20046;-72
2023/08/05 04:55:12;;;;;;;68.75;65.13;;;;;;;19.78;53.79;101365.69;4973140;28;20142;-72
2023/08/05 04:57:38;;;;;;;68.60;65.20;;;;;;;19.76;54.08;101370.63;4989739;28;20042;-72
2023/08/05 05:00:04;;;;;;;67.32;63.92;;;;;;;19.75;53.92;101371.72;4990981;28;20034;-71
2023/08/05 05:02:29;;;;;;;68.20;64.60;;;;;;;19.75;53.82;101366.25;4987215;28;20083;-72
2023/08/05 05:04:55;;;;;;;68.35;64.85;;;;;;;19.73;53.77;101365.72;4990382;28;20417;-71
2023/08/05 05:07:20;;;;;;;69.35;65.55;;;;;;;19.71;53.88;101362.47;4988600;28;20034;-71
2023/08/05 05:09:45;;;;;;;68.68;65.03;;;;;;;19.71;54.25;101364.38;4987012;28;20492;-72
2023/08/05 05:12:11;;;;;;;71.38;67.43;;;;;;;19.70;54.00;101371.78;4991192;28;20582;-73
2023/08/05 05:14:44;;;;;;;67.18;63.78;;;;;;;19.68;54.08;101363.03;4991026;28;20041;-72
2023/08/05 05:17:09;;;;;;;72.25;68.47;;;;;;;19.67;54.36;101364.94;4990134;28;20069;-72
2023/08/05 05:19:35;;;;;;;70.03;66.28;;;;;;;19.66;54.35;101354.25;4986418;28;20485;-72
2023/08/05 05:22:00;;;;;;;68.45;64.82;;;;;;;19.65;53.77;101355.34;4987283;28;20379;-72
2023/08/05 05:24:28;;;;;;;69.28;65.35;;;;;;;19.64;54.44;101359.19;4990696;28;20035;-72
2023/08/05 05:26:54;;;;;;;70.82;67.32;;;;;;;19.62;54.11;101354.00;4992158;28;20034;-72
2023/08/05 05:29:20;;;;;;;69.82;66.07;;;;;;;19.60;54.25;101356.19;5006641;28;20046;-72
2023/08/05 05:31:46;;;;;;;69.97;66.38;;;;;;;19.59;54.31;101351.84;4978827;28;20038;-72
2023/08/05 05:34:11;;;;;;;70.28;66.60;;;;;;;19.59;54.31;101354.59;4992090;28;20234;-71
2023/08/05 05:36:36;;;;;;;70.57;66.88;;;;;;;19.57;54.09;101354.03;4979316;28;20070;-72
2023/08/05 05:39:02;;;;;;;68.90;65.20;;;;;;;19.56;54.28;101349.69;4990016;28;20458;-72
2023/08/05 05:41:28;;;;;;;68.70;65.20;;;;;;;19.55;53.84;101345.28;4990891;28;20046;-72
2023/08/05 05:43:53;;;;;;;69.95;66.15;;;;;;;19.55;54.11;101344.47;4980932;28;20042;-71
2023/08/05 05:46:19;;;;;;;68.93;65.45;;;;;;;19.54;53.95;101334.63;4974955;28;20046;-72
2023/08/05 05:48:45;;;;;;;66.88;63.22;;;;;;;19.53;53.94;101336.56;4984460;28;20038;-71
2023/08/05 05:51:11;;;;;;;69.30;65.53;;;;;;;19.51;54.35;101330.56;4986042;28;20046;-71
2023/08/05 05:53:36;;;;;;;69.07;65.50;;;;;;;19.50;54.17;101334.38;4978281;28;20062;-72
2023/08/05 05:56:02;;;;;;;67.85;64.45;;;;;;;19.49;53.95;101331.94;4981639;28;20117;-71
2023/08/05 05:58:28;;;;;;;70.43;66.47;;;;;;;19.49;54.16;101331.94;4986256;28;20788;-72
2023/08/05 06:00:56;;;;;;;67.85;64.43;;;;;;;19.48;54.46;101333.88;4993093;28;20034;-72
2023/08/05 06:03:22;;;;;;;68.53;65.03;;;;;;;19.47;53.96;101324.00;4988820;28;20069;-72
2023/08/05 06:05:50;;;;;;;68.60;64.85;;;;;;;19.45;54.16;101321.56;4975989;28;20120;-72
2023/08/05 06:08:15;;;;;;;67.68;64.15;;;;;;;19.44;54.12;101328.13;4974987;28;20035;-73
2023/08/05 06:10:41;;;;;;;67.95;64.43;;;;;;;19.43;54.58;101334.72;4975045;28;20034;-72
2023/08/05 06:13:06;;;;;;;69.75;66.22;;;;;;;19.43;54.00;101334.72;4986522;28;20372;-72
2023/08/05 06:15:31;;;;;;;68.22;64.50;;;;;;;19.43;54.12;101326.50;4974287;28;20035;-71
2023/08/05 06:17:57;;;;;;;67.18;63.70;;;;;;;19.41;54.49;101317.75;4991264;28;20502;-72
2023/08/05 06:20:23;;;;;;;67.78;64.20;;;;;;;19.40;54.15;101321.63;4993379;28;20034;-72
2023/08/05 06:22:48;;;;;;;68.25;64.85;;;;;;;19.41;54.54;101322.44;4992295;28;20080;-72
2023/08/05 06:25:13;;;;;;;68.43;65.05;;;;;;;19.41;54.27;101314.22;4977648;28;20039;-72
2023/08/05 06:27:39;;;;;;;70.38;65.95;;;;;;;19.39;54.58;101308.19;4975076;28;21912;-72
2023/08/05 06:30:05;;;;;;;68.40;64.80;;;;;;;19.37;54.50;101313.13;4999427;28;20054;-72
2023/08/05 06:32:31;;;;;;;68.63;65.20;;;;;;;19.39;54.30;101313.69;4983378;28;20034;-72
2023/08/05 06:34:56;;;;;;;68.32;64.88;;;;;;;19.38;54.38;101315.59;4985242;28;20039;-72
2023/08/05 06:37:22;;;;;;;68.60;65.13;;;;;;;19.36;54.60;101315.06;4972915;28;20488;-73
2023/08/05 06:39:47;;;;;;;68.60;64.97;;;;;;;19.36;54.57;101312.31;5006931;28;20517;-72
2023/08/05 06:42:13;;;;;;;68.07;64.68;;;;;;;19.36;54.30;101315.06;4992188;28;20031;-73
2023/08/05 06:44:38;;;;;;;67.82;64.22;;;;;;;19.35;54.47;101318.91;4988949;28;20812;-72
2023/08/05 06:47:05;;;;;;;68.72;65.30;;;;;;;19.35;54.33;101307.97;5006048;28;20046;-73
2023/08/05 06:49:31;;;;;;;68.50;65.00;;;;;;;19.35;54.74;101304.38;4982213;28;20054;-74
2023/08/05 06:51:57;;;;;;;67.03;63.40;;;;;;;19.35;54.81;101305.22;4991526;28;20160;-73
2023/08/05 06:54:22;;;;;;;68.15;64.78;;;;;;;19.34;54.50;101300.03;4985750;28;20550;-74
2023/08/05 06:56:47;;;;;;;66.15;62.58;;;;;;;19.34;54.73;101300.03;5006374;28;20034;-73
2023/08/05 06:59:13;;;;;;;67.13;63.42;;;;;;;19.34;54.47;101300.84;4980579;28;20125;-73
2023/08/05 07:01:40;;;;;;;71.18;67.65;;;;;;;19.34;54.81;101289.06;4986411;28;20096;-73
2023/08/05 07:04:05;;;;;;;68.00;64.40;;;;;;;19.34;54.60;101294.53;4988437;28;20065;-73
2023/08/05 07:06:30;;;;;;;68.22;64.78;;;;;;;19.33;54.52;101301.94;4985113;28;20081;-73
2023/08/05 07:08:56;;;;;;;67.40;63.85;;;;;;;19.35;54.78;101298.91;4980082;28;20038;-72
2023/08/05 07:11:21;;;;;;;65.63;62.42;;;;;;;19.35;55.01;101290.69;4973962;28;20046;-72
2023/08/05 07:13:47;;;;;;;66.03;62.80;;;;;;;19.35;54.48;101291.53;4973277;28;20042;-71
2023/08/05 07:16:12;;;;;;;67.93;64.43;;;;;;;19.36;55.01;101289.59;4980762;28;20515;-72
2023/08/05 07:18:38;;;;;;;71.05;67.15;;;;;;;19.36;54.26;101286.88;4983347;28;20554;-72
2023/08/05 07:21:03;;;;;;;68.30;64.47;;;;;;;19.36;54.93;101290.41;4991359;28;20046;-72
2023/08/05 07:23:28;;;;;;;66.50;63.15;;;;;;;19.36;54.46;101290.41;4980876;28;20193;-72
2023/08/05 07:25:54;;;;;;;69.97;66.18;;;;;;;19.37;54.66;101293.97;4987748;28;20053;-72
2023/08/05 07:28:19;;;;;;;69.88;65.47;;;;;;;19.38;54.42;101290.13;4992630;28;20027;-72
2023/08/05 07:30:45;;;;;;;67.97;64.35;;;;;;;19.39;54.64;101283.53;4980221;28;20033;-72
2023/08/05 07:33:11;;;;;;;68.82;65.18;;;;;;;19.40;54.97;101282.41;4986295;28;20030;-72
2023/08/05 07:35:37;;;;;;;72.03;66.70;;;;;;;19.40;54.94;101275.03;4980880;28;20069;-74
2023/08/05 07:38:09;;;;;;;67.82;64.43;;;;;;;19.41;54.82;101278.59;5004677;28;20033;-73
2023/08/05 07:40:40;;;;;;;69.70;65.88;;;;;;;19.40;55.07;101269.56;5005353;28;20256;-73
2023/08/05 07:43:08;;;;;;;69.60;66.00;;;;;;;19.42;55.21;101270.06;4973468;28;20027;-74
2023/08/05 07:45:35;;;;;;;65.97;62.50;;;;;;;19.43;54.68;101262.69;4985988;28;20061;-73
2023/08/05 07:48:01;;;;;;;67.65;64.07;;;;;;;19.44;55.08;101258.84;4984825;28;20043;-73
2023/08/05 07:50:26;;;;;;;65.13;61.83;;;;;;;19.46;55.25;101262.91;4973391;28;20033;-74
2023/08/05 07:52:53;;;;;;;67.80;64.10;;;;;;;19.45;54.78;101250.34;4976398;28;20370;-73
2023/08/05 07:55:19;;;;;;;69.70;65.82;;;;;;;19.48;55.12;101242.63;4988056;28;20113;-74
2023/08/05 07:57:46;;;;;;;68.15;64.65;;;;;;;19.49;54.83;101241.53;4977984;28;20066;-73
2023/08/05 08:00:13;;;;;;;68.88;65.03;;;;;;;19.50;55.11;101245.88;4999665;28;20045;-73
2023/08/05 08:02:42;;;;;;;70.53;65.72;;;;;;;19.52;55.08;101240.94;5000192;28;20038;-74
2023/08/05 08:05:08;;;;;;;69.53;65.63;;;;;;;19.55;55.20;101243.09;4987424;28;20590;-74
2023/08/05 08:07:33;;;;;;;68.45;65.07;;;;;;;19.54;55.21;101236.00;4971845;28;20031;-74
2023/08/05 08:09:59;;;;;;;67.93;64.32;;;;;;;19.56;55.20;101222.81;4983286;28;20026;-74
2023/08/05 08:12:24;;;;;;;67.82;64.32;;;;;;;19.56;54.84;101218.16;4975427;28;20481;-74
2023/08/05 08:14:49;;;;;;;66.15;62.78;;;;;;;19.59;54.98;101211.28;4991453;28;20528;-74
2023/08/05 08:17:16;;;;;;;67.22;63.55;;;;;;;19.60;55.18;101212.88;4989903;28;20413;-74
2023/08/05 08:19:42;;;;;;;67.40;63.55;;;;;;;19.62;54.94;101205.19;4987551;28;20038;-74
2023/08/05 08:22:07;;;;;;;66.65;63.25;;;;;;;19.62;55.07;101202.47;4997824;28;20048;-73
2023/08/05 08:24:33;;;;;;;67.82;64.43;;;;;;;19.64;54.96;101197.50;4971688;28;20039;-74
2023/08/05 08:26:58;;;;;;;66.90;63.30;;;;;;;19.65;55.32;101196.38;4972619;28;20075;-74
2023/08/05 08:29:23;;;;;;;67.72;64.53;;;;;;;19.68;55.03;101195.84;4986833;28;20048;-73
2023/08/05 08:31:49;;;;;;;69.60;66.13;;;;;;;19.69;55.51;101196.66;4991195;28;20149;-73
2023/08/05 08:34:14;;;;;;;67.25;63.92;;;;;;;19.71;55.19;101191.72;4988656;28;20459;-73
2023/08/05 08:36:39;;;;;;;70.65;67.00;;;;;;;19.72;55.49;101190.59;4990980;28;20121;-74
2023/08/05 08:39:05;;;;;;;66.78;63.17;;;;;;;19.74;55.15;101196.59;4980928;28;20035;-75
2023/08/05 08:41:38;;;;;;;67.85;64.28;;;;;;;19.75;55.14;101184.50;4972315;28;20121;-74
2023/08/05 08:44:04;;;;;;;66.47;63.17;;;;;;;19.77;54.97;101179.56;4984305;28;20062;-74
2023/08/05 08:46:30;;;;;;;68.32;65.05;;;;;;;19.78;55.48;101173.81;4991895;28;20160;-73
2023/08/05 08:48:56;;;;;;;68.82;65.47;;;;;;;19.80;55.27;101165.25;4980879;28;20117;-75
2023/08/05 08:51:22;;;;;;;72.45;68.95;;;;;;;19.82;55.40;101157.56;4972942;28;20031;-74
2023/08/05 08:53:48;;;;;;;72.90;69.18;;;;;;;19.85;54.95;101159.72;4994890;28;20043;-74
2023/08/05 08:56:13;;;;;;;67.45;63.95;;;;;;;19.87;55.36;101154.75;4985805;28;20037;-75
2023/08/05 08:58:39;;;;;;;69.53;65.95;;;;;;;19.88;55.18;101157.22;4981848;28;20043;-75
2023/08/05 09:01:05;;;;;;;70.18;66.30;;;;;;;19.90;55.03;101156.91;4989107;28;20042;-75
2023/08/05 09:03:32;;;;;;;72.38;68.50;;;;;;;19.94;55.51;101148.91;4993557;28;20046;-74
2023/08/05 09:05:58;;;;;;;68.32;64.60;;;;;;;19.96;55.15;101146.66;4985626;28;20042;-74
2023/08/05 09:08:24;;;;;;;68.88;65.50;;;;;;;19.98;55.08;101144.44;4984851;28;20046;-74
2023/08/05 09:10:49;;;;;;;69.22;65.63;;;;;;;19.99;55.49;101149.66;4974186;28;20034;-74
2023/08/05 09:13:16;;;;;;;69.50;65.97;;;;;;;20.01;55.33;101138.41;4996071;28;20030;-73
2023/08/05 09:15:43;;;;;;;70.28;66.78;;;;;;;20.02;55.17;101138.09;4991759;28;20046;-72
2023/08/05 09:18:09;;;;;;;69.80;66.30;;;;;;;20.05;55.24;101137.47;4989373;28;20491;-71
2023/08/05 09:20:38;;;;;;;69.35;65.45;;;;;;;20.05;55.21;101132.00;4973703;28;20463;-74
2023/08/05 09:23:06;;;;;;;69.45;65.72;;;;;;;20.07;55.08;101132.53;4988543;28;20133;-72
2023/08/05 09:25:37;;;;;;;67.80;64.63;;;;;;;20.10;55.60;101125.63;4993801;28;20479;-74
2023/08/05 09:28:05;;;;;;;68.95;65.60;;;;;;;20.12;54.97;101119.84;4989769;28;20037;-75
2023/08/05 09:30:32;;;;;;;68.45;65.15;;;;;;;20.14;55.52;101125.88;4983465;28;20034;-74
2023/08/05 09:32:58;;;;;;;70.70;67.07;;;;;;;20.15;55.32;101122.81;4985143;28;20365;-74
2023/08/05 09:35:25;;;;;;;72.03;68.53;;;;;;;20.17;55.43;101117.03;4986258;28;20395;-75
2023/08/05 09:37:51;;;;;;;72.97;69.18;;;;;;;20.20;55.12;101111.75;4995701;28;20459;-75
2023/08/05 09:40:17;;;;;;;73.70;70.00;;;;;;;20.20;55.05;101106.28;4984334;28;20034;-74
2023/08/05 09:42:47;;;;;;;72.50;68.63;;;;;;;20.23;55.05;101108.41;4979925;28;20374;-74
2023/08/05 09:45:14;;;;;;;72.88;68.88;;;;;;;20.24;55.38;101096.34;4982735;28;20026;-74
2023/08/05 09:47:42;;;;;;;74.00;70.30;;;;;;;20.27;55.21;101103.16;4983298;28;20077;-75
2023/08/05 09:50:11;;;;;;;73.05;69.05;;;;;;;20.28;55.42;101099.28;4981983;28;20133;-74
2023/08/05 09:52:37;;;;;;;72.25;68.72;;;;;;;20.30;55.65;101099.81;4983653;28;20410;-74
2023/08/05 09:55:05;;;;;;;69.97;66.57;;;;;;;20.29;55.61;101093.50;4986424;28;20049;-74
2023/08/05 09:57:31;;;;;;;70.20;66.63;;;;;;;20.31;55.30;101091.28;4984712;28;20546;-74
2023/08/05 10:00:00;;;;;;;73.05;69.50;;;;;;;20.32;55.43;101087.41;4986843;28;20040;-74
2023/08/05 10:02:26;;;;;;;;;;;;;;;20.33;55.02;101080.00;4981317;28;20046;-74
2023/08/05 10:04:56;;;;;;;71.07;67.63;;;;;;;20.34;55.36;101076.16;4984433;28;19918;-72
2023/08/05 10:07:27;;;;;;;70.65;67.07;;;;;;;20.35;54.91;101079.72;4989686;28;20080;-70
2023/08/05 10:09:53;;;;;;;70.40;66.78;;;;;;;20.36;55.08;101070.34;4979936;28;20038;-73
2023/08/05 10:12:22;;;;;;;73.18;69.35;;;;;;;20.38;55.36;101070.88;4984157;28;20122;-73
2023/08/05 10:14:49;;;;;;;74.55;70.57;;;;;;;20.41;55.42;101070.25;4989166;28;20134;-73
2023/08/05 10:17:16;;;;;;;71.63;67.75;;;;;;;20.42;55.00;101069.16;4972798;28;20097;-73
2023/08/05 10:19:47;;;;;;;72.47;68.57;;;;;;;20.43;54.99;101070.78;4989264;28;20109;-74
2023/08/05 10:22:12;;;;;;;72.80;69.10;;;;;;;20.45;55.10;101068.56;4984344;28;20041;-75
2023/08/05 10:24:51;;;;;;;71.80;68.28;;;;;;;20.46;55.29;101064.69;4982945;28;20042;-74
2023/08/05 10:27:16;;;;;;;71.40;67.75;;;;;;;20.46;55.02;101057.28;4988327;28;20027;-75
2023/08/05 10:29:57;;;;;;;72.68;68.97;;;;;;;20.48;55.38;101051.50;4999492;28;20422;-69
2023/08/05 10:32:29;;;;;;;75.13;71.05;;;;;;;20.49;55.15;101050.38;4993218;28;20027;-74
2023/08/05 10:35:23;;;;;;;75.40;71.65;;;;;;;20.50;55.38;101046.53;4982853;28;20474;-73
2023/08/05 10:37:50;;;;;;;78.63;74.82;;;;;;;20.53;55.37;101041.22;4983647;28;20475;-72
2023/08/05 10:40:43;;;;;;;71.40;68.10;;;;;;;20.55;55.07;101046.44;4975509;28;20072;-73
2023/08/05 10:43:10;;;;;;;72.55;69.00;;;;;;;20.56;55.20;101045.31;4987967;28;20030;-74
2023/08/05 10:45:41;;;;;;;72.75;68.95;;;;;;;20.57;55.29;101046.16;4976570;28;20459;-73
2023/08/05 10:48:09;;;;;;;71.80;68.28;;;;;;;20.60;54.99;101051.03;4991744;28;20424;-73
2023/08/05 10:50:38;;;;;;;73.57;70.07;;;;;;;20.61;55.38;101039.75;4981149;28;20046;-76
2023/08/05 10:53:09;;;;;;;77.57;73.50;;;;;;;20.62;54.78;101035.91;4985931;28;20034;-74
2023/08/05 10:55:48;;;;;;;74.38;70.72;;;;;;;20.65;55.05;101034.47;4972540;28;20031;-74
2023/08/05 10:58:15;;;;;;;74.55;70.90;;;;;;;20.66;55.28;101036.09;5003200;28;20935;-75
2023/08/05 11:00:42;;;;;;;71.15;67.75;;;;;;;20.68;55.29;101031.13;4972454;28;20034;-73
2023/08/05 11:03:32;;;;;;;74.63;70.95;;;;;;;20.70;55.17;101026.94;4980809;28;20105;-73
2023/08/05 11:06:05;;;;;;;73.43;69.93;;;;;;;20.71;55.14;101027.75;4972564;28;20034;-74